Weather observations for the past three days for
Batavia Clermont County Airport
Metric (Imperial)
Date Time (edt) Wind (kph) Vis. (km) Weather Sky Cond. Temperature (ºC) Relative Humidity Wind Chill (°C) Heat Index (°C) Pressure Precipitation (cm)
Air Dwpt 6 hour altimeter (cm) sea level (mb) 1 hr 3 hr 6 hr
Max. Min.
04 15:16 W 9 16.09 Partly Cloudy SCT110 22.4 12.2 53% 75.72 0.0
04 14:56 W 22 G 30 16.09 Partly Cloudy SCT110 21.6 11.1 51% 75.74 0.0
04 14:36 SW 19 G 31 16.09 Partly Cloudy SCT110 21.1 11.1 53% 75.74 0.0
04 14:16 SW 22 G 31 16.09 Partly Cloudy SCT110 21 10.8 52% 75.72 0.0
04 13:56 SW 15 G 31 16.09 Partly Cloudy SCT120 20.9 10.4 20.9 12.5 51% 75.72 0.0
04 13:36 SW 20 G 28 16.09 Partly Cloudy SCT110 20.2 10.3 53% 75.72 0.0
04 13:16 SW 15 16.09 Partly Cloudy SCT110 20.4 10.3 52% 75.72 0.0
04 12:56 SW 19 G 26 16.09 Partly Cloudy SCT120 20 10.4 54% 75.72 0.0
04 12:36 SW 19 G 33 16.09 Fair CLR 20 10.3 54% 75.77 0.0
04 12:16 SW 19 G 30 16.09 Fair CLR 19.4 9.4 53% 75.79 0.0
04 11:56 W 19 16.09 Fair CLR 19.6 10 54% 75.74 0.0
04 11:36 SW 13 16.09 Fair CLR 18.5 9.7 57% 75.77 0.0
04 11:16 SW 9 16.09 Partly Cloudy SCT100 SCT120 17.9 9.4 58% 75.77 0.0
04 10:56 SW 11 16.09 Mostly Cloudy SCT049 SCT100 BKN120 16.2 8.8 62% 75.77 0.0
04 10:36 S 15 G 26 16.09 Fair CLR 16 8.1 60% 75.79 0.0
04 10:16 S 13 16.09 Fair CLR 15.8 8.3 61% 75.79 0.0
04 09:56 SW 19 G 28 16.09 Fair CLR 14.7 8 64% 75.79 0.0
04 09:36 SW 15 G 26 16.09 Fair CLR 14.3 7.8 65% 75.82 0.0
04 09:16 SW 13 16.09 Fair CLR 13.5 7.5 67% 75.82 0.0
04 08:56 S 17 16.09 Partly Cloudy SCT100 13 6.8 66% 75.82 0.0
04 08:36 SW 13 16.09 Partly Cloudy SCT090 SCT110 12.7 6.3 65% 75.84 0.0
04 08:16 SW 15 G 26 16.09 Mostly Cloudy BKN090 12.5 5.8 64% 75.84 0.0
04 07:56 SW 13 16.09 Partly Cloudy SCT070 SCT090 SCT110 12.4 5.2 12.4 11.5 62% 75.84 0.0
04 07:36 SW 9 16.09 Mostly Cloudy BKN070 BKN080 BKN110 12 4.7 61% 75.82 0.0
04 07:16 SW 11 16.09 Partly Cloudy SCT090 SCT110 12 4.3 60% 75.82 0.0
04 06:56 SW 13 16.09 Partly Cloudy SCT090 11.6 4.1 60% 75.82 0.0
04 06:36 SW 11 16.09 Partly Cloudy SCT100 11.5 4 60% 75.82 0.0
04 06:16 SW 11 16.09 Mostly Cloudy BKN100 11.6 3.7 59% 75.82 0.0
04 05:56 SW 9 16.09 Fair CLR 11.5 3.5 58% 75.82 0.0
04 05:36 SW 13 16.09 Partly Cloudy SCT075 SCT095 SCT110 11.6 3.4 57% 75.84 0.0
04 05:16 SW 17 G 28 16.09 Mostly Cloudy SCT085 BKN100 12 3.1 55% 75.84 0.0
04 04:56 SW 11 16.09 Partly Cloudy SCT095 11.7 3 55% 75.84 0.0
04 04:36 SW 15 16.09 Fair CLR 11.5 2.8 55% 75.87 0.0
04 04:16 SW 15 16.09 Fair CLR 11.6 2.6 54% 75.87 0.0
04 03:56 SW 13 16.09 Partly Cloudy SCT090 11.7 2.5 54% 75.9 0.0
04 03:36 SW 13 G 26 16.09 Partly Cloudy SCT075 SCT110 11.8 2.4 53% 75.9 0.0
04 03:16 SW 15 16.09 Mostly Cloudy BKN085 12 2.3 52% 75.92 0.0
04 02:56 SW 13 16.09 Partly Cloudy SCT085 11.9 2.3 52% 75.92 0.0
04 02:36 SW 17 16.09 Fair CLR 12 2.2 51% 75.95 0.0
04 02:16 SW 13 16.09 Partly Cloudy SCT100 12 2.1 51% 75.95 0.0
04 01:56 SW 13 16.09 Fair CLR 11.9 2.2 15 11.1 52% 76 0.0
04 01:36 SW 13 16.09 Partly Cloudy SCT075 SCT100 12.1 2.2 51% 76 0.0
04 01:16 SW 11 16.09 Mostly Cloudy SCT075 BKN100 12.4 2.3 50% 76 0.0
04 00:56 SW 7 16.09 Fair CLR 11.8 2.2 52% 76 0.0
04 00:36 SW 11 16.09 Partly Cloudy SCT100 11.9 2.3 52% 76.02 0.0
04 00:16 SW 9 16.09 Partly Cloudy SCT100 11.5 2.6 55% 76.02 0.0
03 23:56 S 6 16.09 Partly Cloudy SCT110 11.2 2.6 56% 76.05 0.0
03 23:36 S 6 16.09 Overcast OVC110 11.7 2.3 53% 76.05 0.0
03 23:16 S 6 16.09 Overcast SCT085 OVC110 11.7 2.5 54% 76.05 0.0
03 22:56 S 6 16.09 Overcast OVC085 11.7 2.8 55% 76.1 0.0
03 22:36 Calm 16.09 Overcast BKN085 OVC120 12.1 2.9 54% 76.1 0.0
03 22:16 Calm 16.09 Overcast OVC085 12.4 3.2 54% 76.07 0.0
03 21:56 S 6 16.09 Overcast SCT070 OVC085 13 2.4 49% 76.07 0.0
03 21:36 S 7 16.09 Overcast BKN070 OVC075 13.2 2.2 48% 76.05 0.0
03 21:16 SW 6 16.09 Overcast OVC070 14.5 0 37% 76.05 0.0
03 20:56 SW 13 16.09 Overcast SCT070 OVC080 14.6 -0.1 37% 76.05 0.0
03 20:36 SW 7 16.09 Mostly Cloudy BKN080 14.7 -0.1 37% 76.05 0.0
03 20:16 S 7 16.09 Mostly Cloudy BKN080 14.8 -0.4 36% 76.02 0.0
03 19:56 SW 11 16.09 Mostly Cloudy BKN080 15.1 -0.6 17 15.1 34% 76.02 0.0
03 19:36 SW 17 16.09 Overcast BKN080 OVC100 15.3 -0.5 34% 76.05 0.0
03 19:16 SW 7 16.09 Overcast OVC080 15.5 -0.6 33% 76.1 0.0
03 18:56 SW 19 16.09 Overcast OVC090 15.6 -1 32% 76.12 0.0
03 18:36 SW 19 G 31 16.09 Overcast OVC100 15.8 -0.8 32% 76.12 0.0
03 18:16 SW 15 16.09 Overcast OVC100 16.6 -0.2 32% 76.15 0.0
03 17:56 SW 19 16.09 Overcast BKN100 OVC120 15.8 -0.5 33% 76.17 0.0
03 17:36 W 15 16.09 Overcast OVC100 15.8 -0.6 33% 76.15 0.0
03 17:16 W 15 G 30 16.09 Overcast OVC100 15.8 -0.6 33% 76.2 0.0
03 16:56 W 17 16.09 Mostly Cloudy BKN110 15.7 -0.5 33% 76.2 0.0
03 16:36 W 20 G 31 16.09 Overcast OVC110 15.7 -0.8 33% 76.2 0.0
03 16:16 SW 19 G 33 16.09 Overcast OVC110 15.6 -0.7 33% 76.2 0.0
03 15:56 W 20 16.09 Partly Cloudy SCT120 16.5 -0.4 32% 76.23 0.0
03 15:36 W 20 G 26 16.09 Partly Cloudy SCT120 16.6 -0.6 31% 76.28 0.0
03 15:16 SW 13 16.09 Mostly Cloudy BKN120 16.8 -0.6 31% 76.3 0.0
03 14:56 SW 19 G 33 16.09 Partly Cloudy SCT120 15.8 -1 32% 76.3 0.0
03 14:36 SW 13 G 28 16.09 Partly Cloudy SCT120 16 -0.4 33% 76.35 0.0
03 14:16 SW 20 G 30 16.09 Fair CLR 16 -0.3 33% 76.35 0.0
03 13:56 SW 19 G 28 16.09 Fair CLR 15.5 -0.8 15.9 4.6 33% 76.38 0.0
03 13:36 W 19 G 26 16.09 Fair CLR 15.6 -0.6 33% 76.4 0.0
03 13:16 SW 17 G 35 16.09 Fair CLR 15.4 -0.4 34% 76.43 0.0
03 12:56 SW 17 G 31 16.09 Fair CLR 14.9 -1 34% 76.45 0.0
03 12:36 W 9 G 30 16.09 Fair CLR 14.5 -0.8 35% 76.48 0.0
03 12:16 W 11 G 28 16.09 Fair CLR 14.3 -1.2 35% 76.5 0.0
03 11:56 W 17 G 28 16.09 Fair CLR 14 -0.4 37% 76.53 0.0
03 11:36 W 19 16.09 Fair CLR 13.9 -0.5 37% 76.53 0.0
03 11:16 W 19 G 26 16.09 Fair CLR 13.2 -0.4 39% 76.53 0.0
03 10:56 SW 13 G 28 16.09 Fair CLR 12.3 -0.3 42% 76.53 0.0
03 10:36 W 19 16.09 Fair CLR 11.5 0.1 46% 76.53 0.0
03 10:16 W 17 G 28 16.09 Fair CLR 10.6 0.5 50% 76.53 0.0
03 09:56 W 20 16.09 Fair CLR 9.9 0.1 51% 7 76.53 0.0
03 09:36 SW 13 16.09 Fair CLR 9 0 54% 7 76.53 0.0
03 09:16 SW 13 16.09 Fair CLR 8.4 0 56% 7 76.56 0.0
03 08:56 SW 11 16.09 Fair CLR 7.3 -0.1 60% 5 76.53 0.0
03 08:36 SW 15 16.09 Fair CLR 6.2 -0.1 64% 4 76.53 0.0
03 08:16 SW 13 16.09 Fair CLR 5.5 0 68% 3 76.53 0.0
03 07:56 SW 13 16.09 Fair CLR 4.5 -0.1 4.5 0 72% 2 76.53 0.0
03 07:36 SW 9 16.09 Fair CLR 3.5 -0.1 78% 1 76.5 0.0
03 07:16 SW 11 16.09 Fair CLR 2.8 -0.5 79% 0 76.5 0.0
03 06:56 SW 11 16.09 Fair CLR 2.5 -0.5 81% -0 76.48 0.0
03 06:36 SW 9 16.09 Fair CLR 2.5 -0.6 80% 0 76.45 0.0
03 06:16 SW 7 16.09 Fair CLR 2.2 -0.5 83% 0 76.45 0.0
03 05:56 SW 9 16.09 Fair CLR 2.5 -0.6 80% 0 76.43 0.0
03 05:36 SW 7 16.09 Fair CLR 2.8 -0.8 77% 1 76.43 0.0
03 05:16 SW 6 16.09 Fair CLR 2.5 -0.6 80% 76.45 0.0
03 04:56 SW 6 16.09 Fair CLR 0.8 -0.7 90% 76.43 0.0
03 04:36 Calm 16.09 Fair CLR 0.3 -0.3 96% 76.43 0.0
03 04:16 Calm 16.09 Fair CLR 0.2 -0.2 97% 76.43 0.0
03 03:56 Calm 16.09 Fair CLR 1 0 93% 76.43 0.0
03 03:36 Calm 16.09 Fair CLR 0.5 -0.1 96% 76.43 0.0
03 03:16 Calm 16.09 Fair CLR 0.6 0 96% 76.43 0.0
03 02:56 Calm 16.09 Fair CLR 1.7 -0.2 87% 76.43 0.0
03 02:36 Calm 16.09 Fair CLR 2 0 87% 76.43 0.0
03 02:16 Calm 16.09 Fair CLR 1.5 -0.2 89% 76.45 0.0
03 01:56 SW 6 16.09 Fair CLR 2.5 0 9.5 1.9 84% 76.45 0.0
03 01:36 SW 6 16.09 Fair CLR 2.5 0 84% 76.45 0.0
03 01:16 SW 7 16.09 Fair CLR 2.2 0.1 86% 0 76.45 0.0
03 00:56 SW 7 16.09 Fair CLR 2.2 0.1 86% 0 76.45 0.0
03 00:36 Calm 16.09 Fair CLR 2.6 0 83% 76.45 0.0
03 00:16 SW 7 16.09 Fair CLR 3.2 0 80% 2 76.45 0.0
02 23:56 SW 6 16.09 Fair CLR 3.4 -0.1 78% 76.45 0.0
02 23:36 Calm 16.09 Fair CLR 4.2 -0.5 72% 76.45 0.0
02 23:16 Calm 16.09 Fair CLR 5 -0.5 68% 76.45 0.0
02 22:56 Calm 16.09 Fair CLR 5.5 -0.4 66% 76.45 0.0
02 22:36 Calm 16.09 Fair CLR 6 -1.1 61% 76.45 0.0
02 22:16 Calm 16.09 Fair CLR 5.9 -1.6 59% 76.45 0.0
02 21:56 N 6 16.09 Fair CLR 7 -2 53% 76.43 0.0
02 21:36 N 7 16.09 Fair CLR 7.1 -2.1 52% 6 76.43 0.0
02 21:16 N 6 16.09 Fair CLR 7.4 -2.1 51% 76.4 0.0
02 20:56 N 6 16.09 Partly Cloudy SCT065 7.9 -2.3 49% 76.38 0.0
02 20:36 N 9 16.09 Mostly Cloudy BKN065 8.5 -2.5 46% 7 76.38 0.0
02 20:16 N 9 16.09 Mostly Cloudy SCT070 BKN075 8.9 -1.7 48% 8 76.35 0.0
02 19:56 N 9 16.09 Overcast SCT060 OVC070 9.6 -2.7 13.4 9.6 42% 9 76.33 0.0
02 19:36 N 13 16.09 Overcast SCT070 OVC080 10 -2.8 41% 8 76.33 0.0
02 19:16 N 15 16.09 Overcast SCT070 OVC080 10.5 -2.7 40% 76.33 0.0
02 18:56 N 13 16.09 Overcast OVC080 10.6 -2.7 40% 76.33 0.0
02 18:36 N 11 16.09 Overcast SCT070 OVC080 10.5 -2.9 39% 76.3 0.0
02 18:16 N 13 16.09 Overcast SCT070 OVC080 10.8 -3.3 37% 76.3 0.0
02 17:56 N 17 16.09 Overcast BKN070 OVC090 11 -3.2 37% 76.3 0.0
02 17:36 NW 13 16.09 Mostly Cloudy BKN070 11.4 -2.9 37% 76.3 0.0
02 17:16 N 19 G 28 16.09 Mostly Cloudy BKN080 11 -3.9 35% 76.28 0.0
02 16:56 N 17 16.09 Mostly Cloudy BKN080 11.8 -2.9 36% 76.28 0.0
02 16:36 NW 19 G 30 16.09 Mostly Cloudy BKN075 12.1 -3.1 35% 76.28 0.0
02 16:16 NW 22 16.09 Mostly Cloudy BKN075 13 -2 36% 76.28 0.0
02 15:56 N 19 16.09 Mostly Cloudy BKN075 12.7 -2.5 35% 76.3 0.0
02 15:36 NW 17 G 28 16.09 Overcast OVC065 12.1 -2.8 36% 76.3 0.0
02 15:16 NW 22 16.09 Overcast OVC065 12.6 -2.6 35% 76.33 0.0
02 14:56 NW 22 G 31 16.09 Mostly Cloudy BKN065 11.6 -2.9 36% 76.33 0.0
02 14:36 W 17 G 31 16.09 Mostly Cloudy BKN065 11.9 -2.4 37% 76.33 0.0
02 14:16 NW 15 G 33 16.09 Mostly Cloudy BKN070 11.4 -2.9 37% 76.35 0.0
02 13:56 NW 20 G 28 16.09 Mostly Cloudy BKN060 BKN070 12.1 -2.3 12.4 3.4 37% 76.35 0.0
02 13:36 NW 19 16.09 Mostly Cloudy SCT060 BKN070 10.9 -3 38% 76.35 0.0
02 13:16 N 13 16.09 Mostly Cloudy BKN060 11.4 -1.4 41% 76.35 0.0
02 12:56 N 20 G 35 16.09 Partly Cloudy SCT065 10.6 -2.4 40% 76.38 0.0
02 12:36 NW 20 G 30 16.09 Partly Cloudy SCT049 SCT065 11.3 -1.4 42% 76.38 0.0
02 12:16 NW 19 G 26 16.09 Partly Cloudy SCT049 11.2 -0.5 45% 76.4 0.0
02 11:56 NW 19 16.09 Partly Cloudy SCT049 SCT070 10.8 -0.3 47% 76.4 0.0
02 11:36 N 11 16.09 Partly Cloudy SCT047 SCT070 10.9 0.2 48% 76.43 0.0
02 11:16 N 11 16.09 Partly Cloudy SCT065 9.7 -1.1 47% 8 76.43 0.0
02 10:56 N 11 16.09 Mostly Cloudy SCT055 BKN065 8.9 -0.9 51% 7 76.43 0.0
02 10:36 N 15 16.09 Mostly Cloudy BKN065 8.2 -2.1 49% 6 76.43 0.0
02 10:16 N 13 16.09 Partly Cloudy SCT065 8.6 -0.7 52% 7 76.43 0.0
02 09:56 NW 7 16.09 Fair CLR 8 0.3 59% 7 76.43 0.0
02 09:36 N 9 16.09 Fair CLR 7.2 -0.4 59% 6 76.4 0.0
02 09:16 N 7 16.09 Fair CLR 6.7 0.9 67% 6 76.4 0.0
02 08:56 N 9 16.09 Fair CLR 6 1.7 74% 4 76.4 0.0
02 08:36 NE 6 16.09 Fair CLR 5.4 2.2 80% 76.4 0.0
02 08:16 N 6 16.09 Fair CLR 4.7 2.5 86% 76.4 0.0
02 07:56 Calm 16.09 Fair CLR 2.9 2.7 4.8 1.9 99% 76.38 0.0
02 07:36 Calm 16.09 Mostly Cloudy BKN070 2.5 1.7 95% 76.35 0.0
02 07:16 Calm 16.09 Overcast OVC080 2.5 1.8 95% 76.35 0.0
02 06:56 Calm 16.09 Mostly Cloudy BKN080 2.2 1.5 95% 76.35 0.0
02 06:36 Calm 16.09 Mostly Cloudy BKN080 2.2 1.5 95% 76.35 0.0
02 06:16 Calm 16.09 Mostly Cloudy BKN080 2 1.6 97% 76.35 0.0
02 05:56 Calm 16.09 Fair CLR 2.1 1.2 94% 76.35 0.0
02 05:36 Calm 16.09 Partly Cloudy SCT070 2.8 1.8 93% 76.35 0.0
02 05:16 SW 6 16.09 Partly Cloudy SCT060 SCT070 3 1.8 92% 76.35 0.0
02 04:56 Calm 16.09 Overcast BKN060 OVC070 3 1.8 92% 76.35 0.0
02 04:36 Calm 16.09 Mostly Cloudy SCT060 BKN070 2.8 1.7 93% 76.35 0.0
02 04:16 Calm 16.09 Mostly Cloudy BKN060 BKN070 3.2 1.7 90% 76.35 0.0
02 03:56 Calm 16.09 Fair CLR 3.3 1.6 89% 76.33 0.0
02 03:36 Calm 16.09 Fair CLR 4.3 1.6 83% 76.33 0.0
02 03:16 Calm 16.09 Fair CLR 4.3 1.6 83% 76.33 0.0
02 02:56 Calm 16.09 Fair CLR 4.3 1.6 83% 76.33 0.0
02 02:36 Calm 16.09 Partly Cloudy SCT075 4.2 2.3 88% 76.35 0.0
02 02:16 Calm 16.09 Mostly Cloudy BKN075 4.4 2.2 86% 76.35 0.0
02 01:56 Calm 16.09 Partly Cloudy SCT075 4.5 2.6 10 4 88% 76.38 0.0
02 01:36 Calm 16.09 Fair CLR 4.6 2.9 89% 76.38 0.0
02 01:16 Calm 16.09 Fair CLR 4.4 3 91% 76.38 0.0
02 00:56 Calm 16.09 Partly Cloudy SCT065 4.9 3.2 89% 76.38 0.0
02 00:36 Calm 16.09 Partly Cloudy SCT065 4.6 2.9 89% 76.38 0.0
02 00:16 Calm 16.09 Fair CLR 5.1 3.4 89% 76.38 0.0
01 23:56 Calm 16.09 Fair CLR 4.5 3.4 93% 76.38 0.0
01 23:36 Calm 16.09 Partly Cloudy SCT049 SCT075 5.2 3.5 89% 76.38 0.0
01 23:16 Calm 16.09 Partly Cloudy SCT049 SCT075 5.5 3.5 87% 76.38 0.0
01 22:56 Calm 16.09 Partly Cloudy SCT075 5.5 3.5 87% 76.38 0.0
01 22:36 Calm 16.09 Mostly Cloudy BKN075 5.9 3.7 86% 76.38 0.0
01 22:16 Calm 16.09 Fair CLR 6.3 3.5 82% 76.35 0.0
01 21:56 Calm 16.09 Fair CLR 6.7 3.1 78% 76.33 0.0
01 21:36 Calm 16.09 Fair CLR 7.4 3 74% 76.3 0.0
01 21:16 Calm 16.09 Fair CLR 8 2.2 67% 76.3 0.0
01 20:56 Calm 16.09 Fair CLR 8.7 1.8 62% 76.28 0.0
01 20:36 N 6 16.09 Fair CLR 9 2 62% 76.23 0.0
01 20:16 Calm 16.09 Partly Cloudy SCT050 SCT075 9.1 2.1 62% 76.17 0.0
01 19:56 NE 7 16.09 Mostly Cloudy SCT050 SCT065 BKN075 10.1 2.2 14 10.1 58% 76.2 0.0
01 19:36 N 6 16.09 Mostly Cloudy SCT075 BKN080 11 0.9 50% 76.23 0.0
01 19:16 N 13 16.09 Partly Cloudy SCT075 10.7 0.6 50% 76.2 0.0
01 18:56 NW 15 16.09 Mostly Cloudy BKN075 11.3 0.1 46% 76.2 0.0
01 18:36 N 13 G 30 16.09 Partly Cloudy SCT060 SCT075 11.7 0.9 48% 76.17 0.0
01 18:16 N 20 G 28 16.09 Mostly Cloudy SCT042 SCT049 BKN075 11.6 1.2 49% 76.2 0.0
01 17:56 N 15 16.09 Mostly Cloudy SCT042 BKN075 11.2 1.6 52% 76.2 0.0
01 17:36 N 17 G 35 16.09 Mostly Cloudy SCT043 SCT050 BKN075 11.5 1.9 52% 76.17 0.0
01 17:16 N 19 G 37 16.09 Mostly Cloudy SCT045 BKN055 BKN065 11.7 1.6 50% 76.17 0.0
01 16:56 N 19 G 33 16.09 Mostly Cloudy SCT045 BKN050 12.2 1.5 48% 76.15 0.0
01 16:36 N 26 G 33 16.09 Mostly Cloudy SCT045 BKN050 12.6 2.4 50% 76.15 0.0
01 16:16 NW 20 G 37 16.09 Mostly Cloudy SCT043 BKN050 13.3 2.5 48% 76.15 0.0
01 15:56 NW 20 G 30 16.09 Partly Cloudy SCT049 12.9 2.3 49% 76.15 0.0
Date Time (edt) Wind (kph) Vis. (km) Weather Sky Cond. Air Dwpt Max. Min. Relative Humidity Wind Chill (°C) Heat Index (°C) altimeter (cm) sea level (mb) 1 hr 3 hr 6 hr
6 hour
Temperature (ºC) Pressure Precipitation (cm)